Share

Wausa, NE

Gurney Municipal (KYKN) Elev 1306 ft | 42.92 °N, 97.39 °W | Change Station

Current weather conditions updated 20 minutes ago

Clear
Clear
34 °F
Feels Like 28 °F
N
7
Wind Variable Wind from East
Sunrise 6:44 AM
Sunset 8:15 PM
Moon Waning Gibbous

Today is forecast to be Much Warmer than yesterday.

Pressure 30.22 in
Visibility 10.0 miles
Clouds Clear
Windchill 28 °F
Dew Point 27 °F
Humidity 75%
Rainfall 0.00 in
Snow Depth Not available.
UV 0 out of 16
Pollen 8.70 out of 12
Air Quality Not available.
Flu Activity Sporadic
METAR KYKN 180735Z AUTO 09006KT 10SM CLR 01/M03 A3022 RMK AO1

More Conditions Fewer Conditions

Pressure 30.22 in
Visibility 10.0 miles
Clouds Clear
Windchill 28 °F
Dew Point 27 °F
Humidity 75%
Rainfall 0.00 in
Snow Depth Not available.
UV 0 out of 16
Pollen 8.70 out of 12
Air Quality Not available.
Flu Activity Sporadic
METAR KYKN 180735Z AUTO 09006KT 10SM CLR 01/M03 A3022 RMK AO1

More Conditions Fewer Conditions

10-Day Forecast

Almanac

Astronomy

Apr. 18, 2014 Rise Set
Actual Time 6:44 AM CDT 8:15 PM CDT
Civil Twilight 6:14 AM CDT 8:45 PM CDT
Nautical Twilight 5:39 AM CDT 9:20 PM CDT
Astronomical Twilight 5:01 AM CDT 9:58 PM CDT
Moon No Moon Rise 9:04 AM CDT
Length of Visible Light 14h 30m
Length of Day
13h 31m
Tomorrow will be 2m 42s longer.
Waning Gibbous, 90% of the Moon is Illuminated
Today
Waning Gibbous
Apr 22
Last Quarter
Apr 29
New
May 6
First Quarter
May 14
Full

Today's Extremes

State Highs State Lows

Community

  • SUNRISE THROUGH THE TREES.
    SUNRISE THROUGH THE TREES.
  • Dog Wood Blossoms
    Dog Wood Blossoms
  • Morning Light
    Morning Light
  • New Day
    New Day
  • Lake Michigan Sunrise
    Lake Michigan Sunrise

WunderPhotos

Upload Photos

1,702,279 photos uploaded!

WunderBlogs® & News

Nearby

Snow Depth

Station Depth Elevation
No new snow has been reported.

Coastal Water Temperatures

Place Temperature
No Stations Reporting

Earthquake Activity

City Distance Mag. Time & Date
No recent earthquake activity has been reported nearby.
Minimum magnitude displayed is 2.5.

Nearby Weather Stations

There are no personal weather stations in this area.

What do you think?

We're not finished. Please let us know what you like, what you don't like, and what you are still missing.